Map

Track Data

SID SEASON NUMBER BASIN SUBBASIN NAME ISO_TIME NATURE LAT LON WMO_WIND WMO_PRES WMO_AGENCY TRACK_TYPE DIST2LAND LANDFALL IFLAG USA_AGENCY USA_ATCF_ID USA_LAT USA_LON USA_RECORD USA_STATUS USA_WIND USA_PRES USA_SSHS USA_R34_NE USA_R34_SE USA_R34_SW USA_R34_NW USA_R50_NE USA_R50_SE USA_R50_SW USA_R50_NW USA_R64_NE USA_R64_SE USA_R64_SW USA_R64_NW USA_POCI USA_ROCI USA_RMW USA_EYE TOKYO_LAT TOKYO_LON TOKYO_GRADE TOKYO_WIND TOKYO_PRES TOKYO_R50_DIR TOKYO_R50_LONG TOKYO_R50_SHORT TOKYO_R30_DIR TOKYO_R30_LONG TOKYO_R30_SHORT TOKYO_LAND CMA_LAT CMA_LON CMA_CAT CMA_WIND CMA_PRES HKO_LAT HKO_LON HKO_CAT HKO_WIND HKO_PRES NEWDELHI_LAT NEWDELHI_LON NEWDELHI_GRADE NEWDELHI_WIND NEWDELHI_PRES NEWDELHI_CI NEWDELHI_DP NEWDELHI_POCI REUNION_LAT REUNION_LON REUNION_TYPE REUNION_WIND REUNION_PRES REUNION_TNUM REUNION_CI REUNION_RMW REUNION_R34_NE REUNION_R34_SE REUNION_R34_SW REUNION_R34_NW REUNION_R50_NE REUNION_R50_SE REUNION_R50_SW REUNION_R50_NW REUNION_R64_NE REUNION_R64_SE REUNION_R64_SW REUNION_R64_NW BOM_LAT BOM_LON BOM_TYPE BOM_WIND BOM_PRES BOM_TNUM BOM_CI BOM_RMW BOM_R34_NE BOM_R34_SE BOM_R34_SW BOM_R34_NW BOM_R50_NE BOM_R50_SE BOM_R50_SW BOM_R50_NW BOM_R64_NE BOM_R64_SE BOM_R64_SW BOM_R64_NW BOM_ROCI BOM_POCI BOM_EYE BOM_POS_METHOD BOM_PRES_METHOD NADI_LAT NADI_LON NADI_CAT NADI_WIND NADI_PRES WELLINGTON_LAT WELLINGTON_LON WELLINGTON_WIND WELLINGTON_PRES DS824_LAT DS824_LON DS824_STAGE DS824_WIND DS824_PRES TD9636_LAT TD9636_LON TD9636_STAGE TD9636_WIND TD9636_PRES TD9635_LAT TD9635_LON TD9635_WIND TD9635_PRES TD9635_ROCI NEUMANN_LAT NEUMANN_LON NEUMANN_CLASS NEUMANN_WIND NEUMANN_PRES MLC_LAT MLC_LON MLC_CLASS MLC_WIND MLC_PRES USA_GUST BOM_GUST BOM_GUST_PER REUNION_GUST REUNION_GUST_PER USA_SEAHGT USA_SEARAD_NE USA_SEARAD_SE USA_SEARAD_SW USA_SEARAD_NW STORM_SPEED STORM_DIR
1966329N10096 1966 113 NI BB NOT_NAMED 1966-11-24 18:00:00 TS 10.0000 95.9000 main 285 285 O________O____ jtwc_io IO141966 10.0000 95.9000 -1 10.0000 95.9000 TC 4 271
1966329N10096 1966 113 NI BB NOT_NAMED 1966-11-24 21:00:00 TS 10.0025 95.6825 main 307 307 P________P____ IO141966 10.0025 95.6825 -1 10.0025 95.6825 TC 5 270
1966329N10096 1966 113 NI BB NOT_NAMED 1966-11-25 00:00:00 TS 10.0000 95.4000 main 340 340 O________O____ jtwc_io IO141966 10.0000 95.4000 -1 10.0000 95.4000 TC 25 7 269
1966329N10096 1966 113 NI BB NOT_NAMED 1966-11-25 03:00:00 TS 9.99328 95.0022 main 382 382 P________PO___ IO141966 9.99244 95.0024 -1 9.99244 95.0024 TC 25 10.0000 95.0000 1 9 270
1966329N10096 1966 113 NI BB NOT_NAMED 1966-11-25 06:00:00 TS 10.0059 94.4716 main 434 434 O________OP___ jtwc_io IO141966 10.0000 94.5000 -1 10.0000 94.5000 TC 25 10.0297 94.3581 1 11 273
1966329N10096 1966 113 NI BB NOT_NAMED 1966-11-25 09:00:00 TS 10.0520 93.8545 main 501 501 P________PP___ IO141966 10.0501 93.8926 -1 10.0501 93.8926 TC 25 10.0569 93.7528 1 12 274
1966329N10096 1966 113 NI BB NOT_NAMED 1966-11-25 12:00:00 TS 10.0935 93.2737 main 545 545 O________OP___ jtwc_io IO141966 10.1000 93.3000 -1 10.1000 93.3000 TC 25 10.0806 93.2211 1 10 273
1966329N10096 1966 113 NI BB NOT_NAMED 1966-11-25 15:00:00 TS 10.0999 92.8267 main 569 569 P________PO___ IO141966 10.0999 92.8400 -1 10.0999 92.8400 TC 25 10.1000 92.8000 1 8 271
1966329N10096 1966 113 NI BB NOT_NAMED 1966-11-25 18:00:00 TS 10.1052 92.5017 main 585 585 O________OP___ jtwc_io IO141966 10.1000 92.5000 -1 10.1000 92.5000 TC 25 10.1157 92.5051 1 5 275
1966329N10096 1966 113 NI BB NOT_NAMED 1966-11-25 21:00:00 TS 10.1442 92.3140 main 596 596 P________PP___ IO141966 10.1497 92.3375 -1 10.1497 92.3375 TC 25 10.1332 92.2671 1 4 281
1966329N10096 1966 113 NI BB NOT_NAMED 1966-11-26 00:00:00 TS 10.1864 92.0652 main 618 618 O________OP___ jtwc_io IO141966 10.2000 92.1000 -1 10.2000 92.1000 TC 25 10.1592 91.9956 1 8 274
1966329N10096 1966 113 NI BB NOT_NAMED 1966-11-26 03:00:00 TS 10.2001 91.5549 main 650 650 P________PO___ IO141966 10.2001 91.5324 -1 10.2001 91.5324 TC 25 10.2000 91.6000 1 12 271
1966329N10096 1966 113 NI BB NOT_NAMED 1966-11-26 06:00:00 TS 10.2137 90.8537 main 700 700 O________OP___ jtwc_io IO141966 10.2000 90.8000 -1 10.2000 90.8000 TC 25 10.2410 90.9612 1 14 272
1966329N10096 1966 113 NI BB NOT_NAMED 1966-11-26 09:00:00 TS 10.2460 90.1122 main 762 762 P________PP___ IO141966 10.2199 90.0723 -1 10.2199 90.0723 TC 25 10.2984 90.1918 1 15 274
1966329N10096 1966 113 NI BB NOT_NAMED 1966-11-26 12:00:00 TS 10.3272 89.3172 main 827 804 O________OP___ jtwc_io IO141966 10.3000 89.3000 -1 10.3000 89.3000 TC 25 10.3814 89.3515 1 16 279
1966329N10096 1966 113 NI BB NOT_NAMED 1966-11-26 15:00:00 TS 10.4849 88.5001 main 804 734 P________PO___ IO141966 10.4774 88.5001 -1 10.4774 88.5001 TC 25 10.5000 88.5000 1 16 283
1966329N10096 1966 113 NI BB NOT_NAMED 1966-11-26 18:00:00 TS 10.6880 87.7003 main 734 675 O________OP___ jtwc_io IO141966 10.7000 87.7000 -1 10.7000 87.7000 TC 25 10.6639 87.7010 1 16 285
1966329N10096 1966 113 NI BB NOT_NAMED 1966-11-26 21:00:00 TS 10.8873 86.9301 main 665 607 P________PP___ IO141966 10.8998 86.9424 -1 10.8998 86.9424 TC 30 10.8624 86.9054 1 16 285
1966329N10096 1966 113 NI BB NOT_NAMED 1966-11-27 00:00:00 TS 11.0932 86.1774 main 607 553 O________OP___ jtwc_io IO141966 11.1000 86.2000 -1 11.1000 86.2000 TC 35 11.0796 86.1321 1 15 286
1966329N10096 1966 113 NI BB NOT_NAMED 1966-11-27 03:00:00 TS 11.3000 85.4183 main 544 492 P________PO___ IO141966 11.3000 85.4275 -1 11.3000 85.4275 TC 35 11.3000 85.4000 2 15 286
1966329N10096 1966 113 NI BB NOT_NAMED 1966-11-27 06:00:00 TS 11.4983 84.7132 main 492 433 O________OP___ jtwc_io IO141966 11.5000 84.7000 -1 11.5000 84.7000 TC 35 11.4949 84.7396 2 14 287
1966329N10096 1966 113 NI BB NOT_NAMED 1966-11-27 09:00:00 TS 11.6968 84.0964 main 433 365 P________PP___ IO141966 11.6997 84.0849 -1 11.6997 84.0849 TC 50 11.6911 84.1194 2 13 289
1966329N10096 1966 113 NI BB NOT_NAMED 1966-11-27 12:00:00 TS 11.8973 83.5048 main 365 296 O________OP___ jtwc_io IO141966 11.9000 83.5000 -1 11.9000 83.5000 TC 65 11.8918 83.5145 2 13 288
1966329N10096 1966 113 NI BB NOT_NAMED 1966-11-27 15:00:00 TS 12.0949 82.8716 main 296 218 P________PO___ IO141966 12.0924 82.8574 -1 12.0924 82.8574 TC 65 12.1000 82.9000 4 13 288
1966329N10096 1966 113 NI BB NOT_NAMED 1966-11-27 18:00:00 TS 12.3167 82.2119 main 218 152 O________OP___ jtwc_io IO141966 12.3000 82.2000 -1 12.3000 82.2000 TC 65 12.3500 82.2358 4 14 290
1966329N10096 1966 113 NI BB NOT_NAMED 1966-11-27 21:00:00 TS 12.5723 81.5528 main 152 75 P________PP___ IO141966 12.5573 81.5500 -1 12.5573 81.5500 TC 65 12.6021 81.5582 4 14 291
1966329N10096 1966 113 NI BB NOT_NAMED 1966-11-28 00:00:00 TS 12.8094 80.8922 main 75 10 O________OP___ jtwc_io IO141966 12.8000 80.9000 -1 12.8000 80.9000 TC 65 12.8282 80.8765 4 14 288
1966329N10096 1966 113 NI BB NOT_NAMED 1966-11-28 03:00:00 TS 12.9966 80.2334 main 0 0 P________PO___ IO141966 12.9948 80.2500 -1 12.9948 80.2500 TC 50 13.0000 80.2000 4 13 282
1966329N10096 1966 113 NI BB NOT_NAMED 1966-11-28 06:00:00 TS 13.0831 79.5805 main 0 0 O________OP___ jtwc_io IO141966 13.1000 79.6000 -1 13.1000 79.6000 TC 35 13.0494 79.5414 4 13 272
1966329N10096 1966 113 NI BB NOT_NAMED 1966-11-28 09:00:00 TS 13.0496 78.9299 main 0 0 P________PP___ IO141966 13.0498 78.9496 -1 13.0498 78.9496 TC 30 13.0492 78.8906 4 13 267
1966329N10096 1966 113 NI BB NOT_NAMED 1966-11-28 12:00:00 TS 13.0165 78.2815 main 0 0 O________OP___ jtwc_io IO141966 13.0000 78.3000 -1 13.0000 78.3000 TC 25 13.0494 78.2445 4 13 272
1966329N10096 1966 113 NI AS NOT_NAMED 1966-11-28 15:00:00 TS 13.1032 77.6334 main 0 0 P________PO___ IO141966 13.1048 77.6500 -1 13.1048 77.6500 TC 25 13.1000 77.6000 1 13 282
1966329N10096 1966 113 NI AS NOT_NAMED 1966-11-28 18:00:00 TS 13.2961 76.9580 main 0 0 O________OP___ jtwc_io IO141966 13.3000 77.0000 -1 13.3000 77.0000 TC 25 13.2884 76.8741 1 14 288
1966329N10096 1966 113 NI AS NOT_NAMED 1966-11-28 21:00:00 TS 13.5427 76.2815 main 0 0 P________PP___ IO141966 13.5499 76.3426 -1 13.5499 76.3426 TC 25 13.5285 76.1593 1 14 291
1966329N10096 1966 113 NI AS NOT_NAMED 1966-11-29 00:00:00 TS 13.7931 75.6382 main 0 0 O________OP___ jtwc_io IO141966 13.8000 75.7000 -1 13.8000 75.7000 TC 25 13.7792 75.5146 1 13 290
1966329N10096 1966 113 NI AS NOT_NAMED 1966-11-29 03:00:00 TS 13.9818 75.0117 main 0 0 P________PO___ IO141966 13.9727 75.0175 -1 13.9727 75.0175 TC 25 14.0000 75.0000 1 11 287
1966329N10096 1966 113 NI AS NOT_NAMED 1966-11-29 06:00:00 TS 14.1116 74.5572 main 0 0 O________OP___ jtwc_io IO141966 14.1000 74.5000 -1 14.1000 74.5000 TC 25 14.1349 74.6716 1 7 291
1966329N10096 1966 113 NI AS NOT_NAMED 1966-11-29 09:00:00 TS 14.2169 74.3705 main 10 10 P________PP___ IO141966 14.2072 74.3174 -1 14.2072 74.3174 TC 25 14.2363 74.4768 1 3 311
1966329N10096 1966 113 NI AS NOT_NAMED 1966-11-29 12:00:00 TS 14.3065 74.3229 main 10 10 O________OP___ jtwc_io IO141966 14.3000 74.3000 -1 14.3000 74.3000 TC 25 14.3196 74.3686 1 2 333
1966329N10096 1966 113 NI AS NOT_NAMED 1966-11-29 15:00:00 TS 14.4000 74.2667 main 10 10 P________PO___ IO141966 14.4000 74.2500 -1 14.4000 74.2500 TC 25 14.4000 74.3000 1 2 331
1966329N10096 1966 113 NI AS NOT_NAMED 1966-11-29 18:00:00 TS 14.4958 74.2127 main 21 15 O________OP___ jtwc_io IO141966 14.5000 74.2000 -1 14.5000 74.2000 TC 25 14.4895 74.2318 1 2 326
1966329N10096 1966 113 NI AS NOT_NAMED 1966-11-29 21:00:00 TS 14.5949 74.1319 main 22 11 P________PP___ IO141966 14.6000 74.1125 -1 14.6000 74.1125 TC 25 14.5880 74.1578 1 3 320
1966329N10096 1966 113 NI AS NOT_NAMED 1966-11-30 00:00:00 TS 14.6962 74.0400 main 15 10 O________OP___ jtwc_io IO141966 14.7000 74.0000 -1 14.7000 74.0000 TC 25 14.6925 74.0799 1 2 328
1966329N10096 1966 113 NI AS NOT_NAMED 1966-11-30 03:00:00 NR 14.8000 74.0000 main 10 __________O___ IO141966 -1 TC 14.8000 74.0000 1 2 338

About IBTrACS Database

This database is a web-friendly format of International Best Track Archive for Climate Stewardship (IBTrACS), a global best track data archive curated by NOAA dating back to 1842.

Updated: 2021-12-08